Latest Weather Observations for Middle Point

IDD60901

Issued at 8:31 am CST Monday 20 April 2015 (issued every 10 minutes, with the page automatically refreshed every 10 minutes)

About weather observations | Map of Darwin area stations | Latest observations for Darwin area | Other Formats
Station Details ID: 014041 Name: MIDDLE POINT Lat: -12.61 Lon: 131.30 Height: 14.1 m
Data from the previous 72 hours. | See also: Recent months at Middle Point
Date/Time
CST
Tmp

°C
App
Tmp
°C
Dew
Point
°C
Rel
Hum
%
Delta-T

°C
Wind Press
QNH
hPa
Press
MSL
hPa
Rain
since
9 am
mm
Dir
 
Spd
km/h
Gust
km/h
Spd
kts
Gust
kts
20/08:30am 26.0 28.3 21.4 76 3.1 SE 11 15 6 8 1012.6 1012.4 0.0
20/08:00am 24.7 27.3 21.2 81 2.3 S 9 13 5 7 1012.6 1012.4 0.0
20/07:30am 23.7 25.6 20.6 83 2.0 S 11 13 6 7 1012.4 1012.2 0.0
20/07:00am 23.6 25.2 20.7 84 1.9 S 13 17 7 9 1012.1 1011.9 0.0
20/06:30am 22.7 25.7 20.8 89 1.2 S 6 7 3 4 1011.3 1011.1 0.0
20/06:00am 22.8 26.5 20.7 88 1.4 S 2 2 1 1 1011.1 1010.9 0.0
20/05:30am 23.7 27.1 21.0 85 1.8 S 4 4 2 2 1011.1 1010.9 0.0
20/05:00am 24.3 28.0 21.4 84 1.9 S 4 6 2 3 1010.9 1010.7 0.0
20/04:30am 24.6 28.0 21.7 84 1.9 S 6 7 3 4 1011.1 1010.9 0.0
20/04:00am 25.2 29.3 23.3 89 1.3 S 7 7 4 4 1011.6 1011.4 0.0
20/03:30am 25.2 29.8 23.1 88 1.4 S 4 4 2 2 1011.5 1011.3 0.0
20/03:00am 25.2 29.7 23.6 91 1.1 S 6 6 3 3 1011.3 1011.1 0.0
20/02:30am 24.2 28.1 22.6 91 1.1 SSW 6 7 3 4 1011.4 1011.2 0.0
20/02:00am 23.7 28.4 22.0 90 1.1 CALM 0 0 0 0 1011.1 1010.9 0.0
20/01:30am 23.8 28.6 22.1 90 1.1 CALM 0 0 0 0 1011.5 1011.3 0.0
20/01:00am 24.0 28.7 21.9 88 1.4 CALM 0 0 0 0 1011.8 1011.6 0.0
20/12:30am 24.9 30.0 22.6 87 1.5 CALM 0 0 0 0 1012.2 1012.0 0.0
20/12:00am 25.5 30.8 23.0 86 1.7 CALM 0 2 0 1 1012.5 1012.3 0.0
 
Date/Time
CST
Tmp

°C
App
Tmp
°C
Dew
Point
°C
Rel
Hum
%
Delta-T

°C
Wind Press
QNH
hPa
Press
MSL
hPa
Rain
since
9 am
mm
Dir
 
Spd
km/h
Gust
km/h
Spd
kts
Gust
kts
19/11:30pm 26.0 31.4 23.3 85 1.8 CALM 0 0 0 0 1012.5 1012.3 0.0
19/11:00pm 26.1 31.1 23.2 84 2.0 NE 2 7 1 4 1012.1 1011.9 0.0
19/10:30pm 26.6 32.0 23.3 82 2.3 CALM 0 6 0 3 1012.0 1011.8 0.0
19/10:00pm 26.6 31.9 23.1 81 2.4 CALM 0 0 0 0 1011.8 1011.6 0.0
19/09:30pm 26.3 30.9 23.2 83 2.1 SW 4 7 2 4 1011.6 1011.4 0.0
19/09:00pm 25.4 29.7 22.7 85 1.8 WSW 4 17 2 9 1011.2 1011.0 0.0
19/08:30pm 26.1 31.3 22.8 82 2.2 CALM 0 4 0 2 1010.7 1010.6 0.0
19/08:00pm 26.6 31.8 23.5 83 2.1 WSW 2 6 1 3 1010.3 1010.2 0.0
19/07:30pm 27.5 32.9 23.3 78 2.9 CALM 0 2 0 1 1010.0 1009.9 0.0
19/07:00pm 28.1 32.1 22.8 73 3.6 N 6 6 3 3 1009.6 1009.5 0.0
19/06:30pm 31.4 35.6 21.8 56 6.5 NE 2 4 1 2 1009.4 1009.3 0.0
19/06:00pm 33.3 35.7 19.7 44 9.0 ENE 6 7 3 4 1009.0 1008.9 0.0
19/05:30pm 34.1 35.6 19.0 41 9.9 ENE 9 15 5 8 1008.8 1008.7 0.0
19/05:00pm 34.6 35.4 18.2 37 10.7 ENE 11 17 6 9 1008.5 1008.4 0.0
19/04:30pm 35.0 35.0 17.2 34 11.5 ENE 13 19 7 10 1008.4 1008.3 0.0
19/04:00pm 35.0 34.2 18.1 36 11.0 ENE 19 24 10 13 1008.4 1008.3 0.0
19/03:30pm 35.1 34.2 16.9 34 11.7 E 17 30 9 16 1008.4 1008.3 0.0
19/03:00pm 35.2 34.9 18.3 36 11.0 ESE 17 26 9 14 1008.8 1008.7 0.0
19/02:30pm 34.8 35.1 18.8 39 10.5 ESE 15 20 8 11 1009.1 1009.0 0.0
19/02:00pm 35.0 35.2 19.4 40 10.3 E 17 24 9 13 1009.4 1009.3 0.0
19/01:30pm 34.5 35.0 19.3 40 10.0 ESE 15 20 8 11 1009.7 1009.6 0.0
19/01:00pm 34.1 35.0 20.1 43 9.3 E 15 24 8 13 1010.2 1010.1 0.0
19/12:30pm 33.7 34.6 20.8 46 8.7 ESE 17 22 9 12 1010.7 1010.6 0.0
19/12:00pm 33.0 34.3 20.2 47 8.5 ESE 13 20 7 11 1011.2 1011.0 0.0
19/11:30am 32.8 35.5 21.3 50 7.8 SE 9 17 5 9 1011.5 1011.3 0.0
19/11:00am 32.2 35.1 21.7 54 7.1 E 9 15 5 8 1012.0 1011.8 0.0
19/10:30am 31.7 34.5 21.5 54 6.9 SE 9 19 5 10 1012.5 1012.3 0.0
19/10:00am 30.6 33.7 22.2 61 5.7 ESE 9 13 5 7 1012.8 1012.6 0.0
19/09:30am 29.7 33.4 23.2 68 4.5 ESE 9 13 5 7 1013.0 1012.8 0.0
19/09:00am 28.5 33.0 23.9 76 3.2 ESE 7 13 4 7 1012.9 1012.7 0.0
19/08:30am 27.4 32.8 24.5 84 2.0 SSE 4 6 2 3 1012.7 1012.5 0.0
19/08:00am 25.9 31.7 24.5 92 1.0 S 2 4 1 2 1012.3 1012.1 0.0
19/07:30am 24.1 28.9 22.9 93 0.8 S 2 4 1 2 1012.2 1012.0 0.0
19/07:00am 23.4 27.5 22.2 93 0.8 SE 4 4 2 2 1012.0 1011.8 0.0
19/06:30am 22.7 27.0 21.2 91 1.0 CALM 0 2 0 1 1011.7 1011.5 0.0
19/06:00am 23.8 28.1 22.6 93 0.8 SSE 4 4 2 2 1011.4 1011.2 0.0
19/05:30am 23.7 28.6 22.3 92 0.9 CALM 0 0 0 0 1011.2 1011.0 0.0
19/05:00am 23.3 27.1 21.7 91 1.1 SW 4 4 2 2 1011.0 1010.8 0.0
19/04:30am 24.4 29.6 22.8 91 1.1 CALM 0 0 0 0 1011.1 1010.9 0.0
19/04:00am 24.4 28.9 23.0 92 0.9 ENE 4 4 2 2 1011.0 1010.8 0.0
19/03:30am 25.1 30.5 23.3 90 1.2 CALM 0 0 0 0 1011.2 1011.0 0.0
19/03:00am 25.6 31.4 24.0 91 1.1 CALM 0 0 0 0 1011.3 1011.1 0.0
19/02:30am 25.2 30.9 23.8 92 1.0 CALM 0 0 0 0 1011.3 1011.1 0.0
19/02:00am 24.4 29.3 23.0 92 0.9 E 2 2 1 1 1011.4 1011.2 0.0
19/01:30am 24.1 28.7 22.4 90 1.1 E 2 2 1 1 1011.6 1011.4 0.0
19/01:00am 25.1 30.2 23.3 90 1.2 E 2 4 1 2 1011.8 1011.6 0.0
19/12:30am 25.3 29.7 23.5 90 1.2 ENE 6 6 3 3 1012.2 1012.0 0.0
19/12:00am 25.5 31.2 23.7 90 1.2 CALM 0 2 0 1 1012.3 1012.1 0.0
 
Date/Time
CST
Tmp

°C
App
Tmp
°C
Dew
Point
°C
Rel
Hum
%
Delta-T

°C
Wind Press
QNH
hPa
Press
MSL
hPa
Rain
since
9 am
mm
Dir
 
Spd
km/h
Gust
km/h
Spd
kts
Gust
kts
18/11:30pm 25.4 30.3 23.6 90 1.2 NE 4 4 2 2 1012.4 1012.2 0.0
18/11:00pm 25.1 29.8 23.3 90 1.2 WNW 4 9 2 5 1012.3 1012.1 0.0
18/10:30pm 25.7 30.6 23.6 88 1.4 SW 4 6 2 3 1012.0 1011.8 0.0
18/10:00pm 25.7 30.4 23.4 87 1.6 WSW 4 4 2 2 1011.9 1011.7 0.0
18/09:30pm 25.9 30.4 23.6 87 1.6 W 6 6 3 3 1011.6 1011.4 0.0
18/09:00pm 26.5 31.5 23.8 85 1.9 WNW 4 4 2 2 1011.1 1010.9 0.0
18/08:30pm 26.9 31.4 24.0 84 2.0 WNW 7 7 4 4 1010.7 1010.6 0.0
18/08:00pm 27.3 32.1 24.2 83 2.1 N 6 9 3 5 1010.3 1010.2 0.0
18/07:30pm 27.9 32.7 24.5 82 2.4 N 7 9 4 5 1010.0 1009.9 0.0
18/07:00pm 28.1 32.7 24.1 79 2.8 N 7 13 4 7 1009.5 1009.4 0.0
18/06:30pm 29.5 32.7 23.7 71 4.0 N 13 17 7 9 1009.2 1009.1 0.0
18/06:00pm 32.1 35.2 21.0 52 7.5 NE 6 19 3 10 1008.7 1008.6 0.0
18/05:30pm 33.5 35.7 20.3 46 8.8 E 9 13 5 7 1008.3 1008.2 0.0
18/05:00pm 34.1 35.8 20.1 43 9.3 ENE 11 15 6 8 1007.9 1007.8 0.0
18/04:30pm 33.9 35.8 20.6 45 8.9 E 11 17 6 9 1007.9 1007.8 0.0
18/04:00pm 34.4 36.9 21.1 45 9.0 SE 9 11 5 6 1008.0 1007.9 0.0
18/03:30pm 34.5 36.4 19.7 41 9.8 ESE 9 19 5 10 1008.0 1007.9 0.0
18/03:00pm 35.0 36.7 20.2 42 9.9 SSE 11 20 6 11 1008.2 1008.1 0.0
18/02:30pm 33.8 35.9 20.2 44 9.1 SE 9 17 5 9 1008.7 1008.6 0.0
18/02:00pm 34.7 37.9 21.7 46 8.9 ESE 7 11 4 6 1009.2 1009.1 0.0
18/01:30pm 33.5 36.5 22.0 51 7.9 SE 9 13 5 7 1009.6 1009.5 0.0
18/01:00pm 32.5 35.3 20.4 49 8.1 SE 6 13 3 7 1010.2 1010.1 0.0
18/12:30pm 33.0 36.3 21.8 51 7.6 NNE 7 13 4 7 1010.7 1010.6 0.0
18/12:00pm 33.2 35.7 21.0 48 8.2 E 9 15 5 8 1011.5 1011.3 0.0
18/11:30am 33.0 36.5 22.1 52 7.4 ENE 7 13 4 7 1012.2 1012.0 0.0
18/11:00am 32.2 36.1 22.6 57 6.6 ENE 6 11 3 6 1012.5 1012.3 0.0
18/10:30am 31.3 34.1 22.3 58 6.1 E 11 17 6 9 1013.0 1012.8 0.0
18/10:00am 30.6 33.2 22.7 62 5.4 E 13 19 7 10 1013.0 1012.8 0.0
18/09:30am 29.9 33.0 23.6 69 4.3 E 13 17 7 9 1012.7 1012.5 0.0
18/09:00am 28.8 32.9 23.9 75 3.4 E 9 13 5 7 1012.7 1012.5 0.0
18/08:30am 27.6 31.7 24.0 81 2.5 ESE 9 17 5 9 1012.5 1012.3 0.0
18/08:00am 26.8 31.3 23.9 84 2.0 SE 7 11 4 6 1012.3 1012.1 0.0
18/07:30am 25.6 29.6 23.7 89 1.3 SE 9 11 5 6 1012.0 1011.8 0.0
18/07:00am 24.6 29.1 23.0 91 1.1 ESE 4 7 2 4 1011.7 1011.5 0.0
18/06:30am 24.6 29.2 23.2 92 0.9 ESE 4 6 2 3 1011.3 1011.1 0.0
18/06:00am 24.5 29.0 22.9 91 1.1 SE 4 6 2 3 1011.0 1010.8 0.0
18/05:30am 24.4 28.5 23.0 92 0.9 SE 6 7 3 4 1010.6 1010.5 0.0
18/05:00am 24.6 30.0 23.2 92 0.9 CALM 0 0 0 0 1010.5 1010.4 0.0
18/04:30am 24.3 29.4 22.6 90 1.1 CALM 0 0 0 0 1010.5 1010.4 0.0
18/04:00am 24.2 29.2 22.5 90 1.1 CALM 0 0 0 0 1010.4 1010.3 0.0
18/03:30am 24.3 29.0 22.6 90 1.1 SSW 2 4 1 2 1010.4 1010.3 0.0
18/03:00am 24.4 28.8 22.8 91 1.1 SW 4 6 2 3 1010.4 1010.3 0.0
18/02:30am 24.6 29.9 23.0 91 1.1 CALM 0 0 0 0 1010.4 1010.3 0.0
18/02:00am 24.8 30.2 23.2 91 1.1 CALM 0 2 0 1 1010.6 1010.5 0.0
18/01:30am 25.0 29.7 23.4 91 1.1 SW 4 6 2 3 1011.1 1010.9 0.0
18/01:00am 24.9 29.1 23.1 90 1.2 SW 6 6 3 3 1011.5 1011.3 0.0
18/12:30am 25.0 30.2 22.9 88 1.4 CALM 0 0 0 0 1011.6 1011.4 0.0
18/12:00am 25.5 30.5 23.2 87 1.6 ENE 2 2 1 1 1011.6 1011.4 0.0
 
Date/Time
CST
Tmp

°C
App
Tmp
°C
Dew
Point
°C
Rel
Hum
%
Delta-T

°C
Wind Press
QNH
hPa
Press
MSL
hPa
Rain
since
9 am
mm
Dir
 
Spd
km/h
Gust
km/h
Spd
kts
Gust
kts
17/11:30pm 25.7 30.7 23.2 86 1.7 NE 2 2 1 1 1011.6 1011.4 0.0
17/11:00pm 25.7 29.9 23.2 86 1.7 NNE 6 6 3 3 1011.8 1011.6 0.0
17/10:30pm 25.8 30.4 23.1 85 1.8 N 4 6 2 3 1011.7 1011.5 0.0
17/10:00pm 26.0 30.6 23.1 84 2.0 NNW 4 4 2 2 1011.6 1011.4 0.0
17/09:30pm 26.0 30.6 23.1 84 2.0 N 4 6 2 3 1011.3 1011.1 0.0
17/09:00pm 26.1 29.8 23.2 84 2.0 NNE 9 11 5 6 1011.0 1010.8 0.0
17/08:30pm 26.1 30.0 23.0 83 2.1 N 7 7 4 4 1010.7 1010.6 0.0
17/08:00pm 26.6 31.0 23.5 83 2.1 N 6 6 3 3 1010.5 1010.4 0.0
17/07:30pm 27.1 31.3 23.1 79 2.7 N 6 7 3 4 1010.1 1010.0 0.0
17/07:00pm 27.8 31.2 22.7 74 3.5 N 9 13 5 7 1009.7 1009.6 0.0
17/06:30pm 28.9 31.9 22.6 69 4.3 N 11 17 6 9 1009.4 1009.3 0.0
17/06:00pm 30.1 31.9 22.5 63 5.2 N 17 20 9 11 1009.1 1009.0 0.0
17/05:30pm 31.1 32.6 22.7 61 5.8 N 19 22 10 12 1008.8 1008.7 0.0
17/05:00pm 32.0 34.2 23.3 60 6.0 NNE 17 24 9 13 1008.6 1008.5 0.0
17/04:30pm 33.0 34.9 22.1 52 7.4 NNE 15 20 8 11 1008.4 1008.3 0.0
17/04:00pm 33.8 35.7 20.6 46 8.8 NNE 11 17 6 9 1008.3 1008.2 0.0
17/03:30pm 34.3 37.2 21.0 45 9.0 ENE 7 19 4 10 1008.5 1008.4 0.0
17/03:00pm 33.9 35.7 19.6 43 9.5 NE 9 15 5 8 1008.7 1008.6 0.0
17/02:30pm 34.1 36.2 19.4 42 9.7 E 7 13 4 7 1009.1 1009.0 0.0
17/02:00pm 33.9 35.7 19.6 43 9.5 ESE 9 19 5 10 1009.7 1009.6 0.0
17/01:30pm 33.4 34.4 19.5 44 9.2 ENE 13 20 7 11 1010.2 1010.1 0.0
17/01:00pm 33.4 35.1 20.2 46 8.8 NE 11 19 6 10 1010.7 1010.6 0.0
17/12:30pm 32.9 34.2 19.4 45 8.9 E 11 17 6 9 1011.3 1011.1 0.0
17/12:00pm 32.6 34.8 20.5 49 8.1 E 9 15 5 8 1011.8 1011.6 0.0
17/11:30am 32.1 34.3 20.4 50 7.8 ESE 9 15 5 8 1012.4 1012.2 0.0
17/11:00am 31.3 33.5 20.3 52 7.3 E 9 15 5 8 1013.0 1012.8 0.0
17/10:30am 31.9 34.4 21.7 54 6.9 ESE 11 17 6 9 1013.2 1013.0 0.0
17/10:00am 31.0 33.0 21.5 57 6.4 ENE 13 17 7 9 1013.5 1013.3 0.0
17/09:30am 30.3 33.0 22.2 62 5.5 E 11 15 6 8 1013.5 1013.3 0.0
17/09:00am 29.6 32.6 22.6 66 4.8 E 11 17 6 9 1013.4 1013.2 0.0

Latest Capital City Observations: Canberra | Sydney | Melbourne | Brisbane | Adelaide | Perth | Hobart | Darwin

Other Formats:

Comma delimited format used in spreadsheet applications
http://www.bom.gov.au/fwo/IDD60901/IDD60901.95121.axf

JavaScript Object Notation format (JSON) in row-major order
http://www.bom.gov.au/fwo/IDD60901/IDD60901.95121.json